createdAt,value
2022-08-01T00:02:01.463Z,26.61
2022-08-01T00:04:28.124Z,26.40
2022-08-01T00:06:54.727Z,26.22
2022-08-01T00:09:24.307Z,26.18
2022-08-01T00:11:59.649Z,26.09
2022-08-01T00:14:32.490Z,26.09
2022-08-01T00:17:05.263Z,26.07
2022-08-01T00:19:34.264Z,26.01
2022-08-01T00:22:01.341Z,25.98
2022-08-01T00:24:27.969Z,25.99
2022-08-01T00:26:54.593Z,25.98
2022-08-01T00:30:12.696Z,25.96
2022-08-01T00:32:08.333Z,25.95
2022-08-01T00:34:35.008Z,25.99
2022-08-01T00:37:01.550Z,25.98
2022-08-01T00:39:28.082Z,26.02
2022-08-01T00:41:59.834Z,26.04
2022-08-01T00:44:28.144Z,25.99
2022-08-01T00:46:54.748Z,25.90
2022-08-01T00:49:21.479Z,25.82
2022-08-01T00:51:49.145Z,25.69
2022-08-01T00:54:17.047Z,25.71
2022-08-01T00:56:44.534Z,25.53
2022-08-01T00:59:14.959Z,25.53
2022-08-01T01:01:46.864Z,25.53
2022-08-01T01:04:17.740Z,25.54
2022-08-01T01:07:10.590Z,25.51
2022-08-01T01:09:51.625Z,25.51
2022-08-01T01:12:29.791Z,25.54
2022-08-01T01:15:11.129Z,25.55
2022-08-01T01:17:52.930Z,25.58
2022-08-01T01:20:23.514Z,25.63
2022-08-01T01:23:20.872Z,25.60
2022-08-01T01:26:03.456Z,25.59
2022-08-01T01:29:08.014Z,25.58
2022-08-01T01:32:07.442Z,25.58
2022-08-01T01:34:38.664Z,25.55
2022-08-01T01:37:10.153Z,25.54
2022-08-01T01:39:39.492Z,25.52
2022-08-01T01:42:11.997Z,25.48
2022-08-01T01:44:40.841Z,25.48
2022-08-01T01:47:07.912Z,25.45
2022-08-01T01:49:35.308Z,25.40
2022-08-01T01:52:03.177Z,25.37
2022-08-01T01:54:35.547Z,25.34
2022-08-01T01:57:04.870Z,25.28
2022-08-01T01:59:33.809Z,25.20
2022-08-01T02:02:08.777Z,25.03
2022-08-01T02:04:43.413Z,25.05
2022-08-01T02:07:13.286Z,24.97
2022-08-01T02:09:42.787Z,24.94
2022-08-01T02:12:13.144Z,24.95
2022-08-01T02:14:42.077Z,24.84
2022-08-01T02:17:12.424Z,24.81
2022-08-01T02:19:39.313Z,24.75
2022-08-01T02:22:10.793Z,24.75
2022-08-01T02:25:15.148Z,24.72
2022-08-01T02:27:48.647Z,24.71
2022-08-01T02:30:16.257Z,24.68
2022-08-01T02:32:47.188Z,24.66
2022-08-01T02:36:30.276Z,24.64
2022-08-01T02:38:32.571Z,24.61
2022-08-01T02:41:04.751Z,24.57
2022-08-01T02:43:34.873Z,24.57
2022-08-01T02:46:03.606Z,24.59
2022-08-01T02:48:32.465Z,24.55
2022-08-01T02:51:02.767Z,24.57
2022-08-01T02:53:39.025Z,24.65
2022-08-01T02:56:14.283Z,24.60
2022-08-01T02:58:43.225Z,24.59
2022-08-01T03:01:11.252Z,24.56
2022-08-01T03:03:38.707Z,24.47
2022-08-01T03:06:06.228Z,24.40
2022-08-01T03:08:34.062Z,24.34
2022-08-01T03:11:02.592Z,24.22
2022-08-01T03:13:32.100Z,24.20
2022-08-01T03:16:01.285Z,24.14
2022-08-01T03:18:30.639Z,24.10
2022-08-01T03:20:58.714Z,24.07
2022-08-01T03:23:37.626Z,24.08
2022-08-01T03:26:06.302Z,24.14
2022-08-01T03:28:33.293Z,24.18
2022-08-01T03:31:01.109Z,24.16
2022-08-01T03:33:28.020Z,24.10
2022-08-01T03:35:56.646Z,24.08
2022-08-01T03:38:27.333Z,24.15
2022-08-01T03:41:03.275Z,24.19
2022-08-01T03:43:36.559Z,24.20
2022-08-01T03:46:08.991Z,24.14
2022-08-01T03:48:40.415Z,24.16
2022-08-01T03:51:09.188Z,24.16
2022-08-01T03:53:37.817Z,24.23
2022-08-01T03:56:09.547Z,24.21
2022-08-01T03:58:39.775Z,24.19
2022-08-01T04:01:07.624Z,24.12
2022-08-01T04:03:43.014Z,24.09
2022-08-01T04:06:11.424Z,24.05
2022-08-01T04:08:39.361Z,24.06
2022-08-01T04:11:06.012Z,24.02
2022-08-01T04:13:37.127Z,24.04
2022-08-01T04:16:04.430Z,24.11
2022-08-01T04:18:30.995Z,24.20
2022-08-01T04:20:57.517Z,24.30
2022-08-01T04:23:28.498Z,24.37
2022-08-01T04:25:56.300Z,24.42
2022-08-01T04:28:23.893Z,24.46
2022-08-01T04:30:53.121Z,24.48
2022-08-01T04:33:21.414Z,24.53
2022-08-01T04:36:02.211Z,24.59
2022-08-01T04:38:32.886Z,24.59
2022-08-01T04:41:09.296Z,24.69
2022-08-01T04:43:37.757Z,24.70
2022-08-01T04:46:05.034Z,24.73
2022-08-01T04:48:34.539Z,24.78
2022-08-01T04:51:01.702Z,24.77
2022-08-01T04:53:28.822Z,24.83
2022-08-01T04:55:56.517Z,24.85
2022-08-01T04:58:23.148Z,24.88
2022-08-01T05:00:49.697Z,24.85
2022-08-01T05:03:16.306Z,24.91
2022-08-01T05:05:42.916Z,24.96
2022-08-01T05:08:09.481Z,25.02
2022-08-01T05:10:36.061Z,25.11
2022-08-01T05:13:02.819Z,25.11
2022-08-01T05:15:29.346Z,25.15
2022-08-01T05:17:56.106Z,25.12
2022-08-01T05:20:22.725Z,25.14
2022-08-01T05:22:49.493Z,25.14
2022-08-01T05:25:19.286Z,25.13
2022-08-01T05:27:47.983Z,25.21
2022-08-01T05:30:17.488Z,25.27
2022-08-01T05:32:44.002Z,25.48
2022-08-01T05:35:10.673Z,25.82
2022-08-01T05:37:37.233Z,26.15
2022-08-01T05:40:04.641Z,26.41
2022-08-01T05:42:31.305Z,26.63
2022-08-01T05:44:57.912Z,26.66
2022-08-01T05:47:24.716Z,26.82
2022-08-01T05:49:51.308Z,26.86
2022-08-01T05:52:17.891Z,26.96
2022-08-01T05:54:44.448Z,27.07
2022-08-01T05:57:11.223Z,27.34
2022-08-01T05:59:40.116Z,27.51
2022-08-01T06:02:07.465Z,27.71
2022-08-01T06:04:34.180Z,27.89
2022-08-01T06:07:00.790Z,27.92
2022-08-01T06:09:27.385Z,27.90
2022-08-01T06:11:53.947Z,28.27
2022-08-01T06:14:20.509Z,28.54
2022-08-01T06:16:47.053Z,28.77
2022-08-01T06:19:13.634Z,29.02
2022-08-01T06:21:40.194Z,29.48
2022-08-01T06:24:06.976Z,29.34
2022-08-01T06:26:33.680Z,28.99
2022-08-01T06:29:00.233Z,28.57
2022-08-01T06:31:30.470Z,28.31
2022-08-01T06:33:58.485Z,28.24
2022-08-01T06:36:26.487Z,28.00
2022-08-01T06:38:53.022Z,28.02
2022-08-01T06:41:19.775Z,27.99
2022-08-01T06:43:46.306Z,28.36
2022-08-01T06:46:12.840Z,28.69
2022-08-01T06:48:40.338Z,29.39
2022-08-01T06:51:10.105Z,29.68
2022-08-01T06:53:38.439Z,29.73
2022-08-01T06:56:06.335Z,29.99
2022-08-01T06:58:33.417Z,30.54
2022-08-01T07:00:59.954Z,31.23
2022-08-01T07:03:27.726Z,31.48
2022-08-01T07:06:11.677Z,31.75
2022-08-01T07:08:38.970Z,32.21
2022-08-01T07:11:06.086Z,32.67
2022-08-01T07:13:36.647Z,32.56
2022-08-01T07:16:11.093Z,32.79
2022-08-01T07:18:37.705Z,32.08
2022-08-01T07:21:04.849Z,31.90
2022-08-01T07:23:34.061Z,31.92
2022-08-01T07:26:04.895Z,31.44
2022-08-01T07:28:31.993Z,31.41
2022-08-01T07:30:58.725Z,31.77
2022-08-01T07:33:25.319Z,31.83
2022-08-01T07:35:51.883Z,31.82
2022-08-01T07:38:18.553Z,32.28
2022-08-01T07:40:45.371Z,32.51
2022-08-01T07:43:11.966Z,32.81
2022-08-01T07:45:38.520Z,32.64
2022-08-01T07:48:10.494Z,32.28
2022-08-01T07:50:37.121Z,31.52
2022-08-01T07:53:04.648Z,31.11
2022-08-01T07:55:31.494Z,30.97
2022-08-01T07:57:58.285Z,30.97
2022-08-01T08:00:25.138Z,30.83
2022-08-01T08:02:51.753Z,30.83
2022-08-01T08:05:58.949Z,30.92
2022-08-01T08:08:09.708Z,30.57
2022-08-01T08:10:36.305Z,30.59
2022-08-01T08:13:03.596Z,30.29
2022-08-01T08:15:30.468Z,29.92
2022-08-01T08:17:57.129Z,29.72
2022-08-01T08:20:25.841Z,29.78
2022-08-01T08:22:52.674Z,29.64
2022-08-01T08:25:22.889Z,29.57
2022-08-01T08:27:53.912Z,29.35
2022-08-01T08:30:21.717Z,29.15
2022-08-01T08:32:48.861Z,29.10
2022-08-01T08:35:20.115Z,29.01
2022-08-01T08:37:50.065Z,28.86
2022-08-01T08:40:17.098Z,28.82
2022-08-01T08:42:43.887Z,28.71
2022-08-01T08:45:12.082Z,28.82
2022-08-01T08:47:40.106Z,28.83
2022-08-01T08:50:07.150Z,28.78
2022-08-01T08:52:38.791Z,28.80
2022-08-01T08:55:06.366Z,28.97
2022-08-01T08:57:33.399Z,29.01
2022-08-01T09:00:00.228Z,29.12
2022-08-01T09:02:26.762Z,29.34
2022-08-01T09:04:53.484Z,29.24
2022-08-01T09:07:20.086Z,29.54
2022-08-01T09:09:49.209Z,29.69
2022-08-01T09:12:20.388Z,29.68
2022-08-01T09:14:47.966Z,29.87
2022-08-01T09:17:14.722Z,29.90
2022-08-01T09:19:42.445Z,30.08
2022-08-01T09:22:15.036Z,30.58
2022-08-01T09:24:42.950Z,31.05
2022-08-01T09:27:21.738Z,31.71
2022-08-01T09:29:49.955Z,31.96
2022-08-01T09:32:34.831Z,31.75
2022-08-01T09:35:24.105Z,31.57
2022-08-01T09:38:17.288Z,31.00
2022-08-01T09:40:51.059Z,30.69
2022-08-01T09:43:19.371Z,30.56
2022-08-01T09:45:49.126Z,30.39
2022-08-01T09:48:18.319Z,30.34
2022-08-01T09:50:47.279Z,30.30
2022-08-01T09:53:24.330Z,30.22
2022-08-01T09:56:10.186Z,30.39
2022-08-01T09:59:01.510Z,30.57
2022-08-01T10:01:42.038Z,30.32
2022-08-01T10:04:09.929Z,30.66
2022-08-01T10:06:37.713Z,30.86
2022-08-01T10:09:04.678Z,31.34
2022-08-01T10:11:36.597Z,31.72
2022-08-01T10:14:04.341Z,32.17
2022-08-01T10:16:32.943Z,32.52
2022-08-01T10:19:00.182Z,32.52
2022-08-01T10:21:57.283Z,32.58
2022-08-01T10:24:18.895Z,32.59
2022-08-01T10:26:49.658Z,32.93
2022-08-01T10:29:24.302Z,32.98
2022-08-01T10:32:07.681Z,33.09
2022-08-01T10:34:35.546Z,33.02
2022-08-01T10:37:03.901Z,32.81
2022-08-01T10:39:34.060Z,33.34
2022-08-01T10:42:01.720Z,33.62
2022-08-01T10:44:32.797Z,33.32
2022-08-01T10:47:11.019Z,33.25
2022-08-01T10:49:46.507Z,34.05
2022-08-01T10:52:19.660Z,34.08
2022-08-01T10:54:52.414Z,33.89
2022-08-01T10:57:23.071Z,34.10
2022-08-01T10:59:59.377Z,34.09
2022-08-01T11:02:34.479Z,34.14
2022-08-01T11:05:04.325Z,34.81
2022-08-01T11:07:54.020Z,35.30
2022-08-01T11:10:26.881Z,34.51
2022-08-01T11:12:53.837Z,34.48
2022-08-01T11:15:29.559Z,33.90
2022-08-01T11:18:00.579Z,33.32
2022-08-01T11:20:33.881Z,33.22
2022-08-01T11:23:07.181Z,32.56
2022-08-01T11:26:04.538Z,32.18
2022-08-01T11:28:31.978Z,32.45
2022-08-01T11:31:07.912Z,32.49
2022-08-01T11:33:46.199Z,32.72
2022-08-01T11:36:22.184Z,32.91
2022-08-01T11:39:00.638Z,33.42
2022-08-01T11:41:38.441Z,33.67
2022-08-01T11:44:30.527Z,34.31
2022-08-01T11:47:00.682Z,34.76
2022-08-01T11:49:29.042Z,34.51
2022-08-01T11:52:09.555Z,34.55
2022-08-01T11:54:40.900Z,33.57
2022-08-01T11:57:20.311Z,33.53
2022-08-01T12:00:02.808Z,33.02
2022-08-01T12:02:38.925Z,32.67
2022-08-01T12:05:18.924Z,32.40
2022-08-01T12:07:47.250Z,33.20
2022-08-01T12:10:19.122Z,33.62
2022-08-01T12:12:56.670Z,33.59
2022-08-01T12:15:25.252Z,33.33
2022-08-01T12:17:59.817Z,33.42
2022-08-01T12:20:31.541Z,33.11
2022-08-01T12:23:01.262Z,32.58
2022-08-01T12:25:28.052Z,32.94
2022-08-01T12:27:56.897Z,33.54
2022-08-01T12:30:27.920Z,34.32
2022-08-01T12:32:55.022Z,34.00
2022-08-01T12:35:24.267Z,33.62
2022-08-01T12:38:03.357Z,33.26
2022-08-01T12:40:45.107Z,33.16
2022-08-01T12:43:26.816Z,32.92
2022-08-01T12:45:57.837Z,32.70
2022-08-01T12:48:26.177Z,32.81
2022-08-01T12:50:53.851Z,33.08
2022-08-01T12:53:21.499Z,33.31
2022-08-01T12:55:59.206Z,33.38
2022-08-01T12:58:33.306Z,32.98
2022-08-01T13:01:06.462Z,33.19
2022-08-01T13:03:33.374Z,33.38
2022-08-01T13:06:01.118Z,33.50
2022-08-01T13:08:32.920Z,33.53
2022-08-01T13:11:09.752Z,33.20
2022-08-01T13:13:43.454Z,32.90
2022-08-01T13:16:12.455Z,32.51
2022-08-01T13:18:50.548Z,32.63
2022-08-01T13:21:20.677Z,32.67
2022-08-01T13:24:24.482Z,32.98
2022-08-01T13:26:52.272Z,33.26
2022-08-01T13:29:21.655Z,33.49
2022-08-01T13:31:48.995Z,33.45
2022-08-01T13:34:16.016Z,33.29
2022-08-01T13:36:48.746Z,33.22
2022-08-01T13:39:34.990Z,33.11
2022-08-01T13:42:01.574Z,33.18
2022-08-01T13:44:28.647Z,33.08
2022-08-01T13:46:56.917Z,33.14
2022-08-01T13:49:24.351Z,32.84
2022-08-01T13:51:51.623Z,32.81
2022-08-01T13:54:18.803Z,32.57
2022-08-01T13:56:45.590Z,32.51
2022-08-01T13:59:12.542Z,32.54
2022-08-01T14:01:39.265Z,32.74
2022-08-01T14:04:06.115Z,32.93
2022-08-01T14:06:33.551Z,33.04
2022-08-01T14:09:01.160Z,32.97
2022-08-01T14:11:37.021Z,32.91
2022-08-01T14:14:04.521Z,33.02
2022-08-01T14:16:31.487Z,32.87
2022-08-01T14:18:58.065Z,32.89
2022-08-01T14:21:24.663Z,32.69
2022-08-01T14:23:51.209Z,32.69
2022-08-01T14:26:17.774Z,32.56
2022-08-01T14:28:44.343Z,32.50
2022-08-01T14:31:11.352Z,32.44
2022-08-01T14:33:37.931Z,32.17
2022-08-01T14:36:29.582Z,32.28
2022-08-01T14:38:51.839Z,32.18
2022-08-01T14:41:18.377Z,32.19
2022-08-01T14:43:45.449Z,32.17
2022-08-01T14:46:13.302Z,32.08
2022-08-01T14:48:39.879Z,32.14
2022-08-01T14:51:08.041Z,31.91
2022-08-01T14:53:36.617Z,31.74
2022-08-01T14:56:04.748Z,31.70
2022-08-01T14:58:31.458Z,31.58
2022-08-01T15:00:59.297Z,31.39
2022-08-01T15:03:26.356Z,31.32
2022-08-01T15:05:52.922Z,31.28
2022-08-01T15:08:19.469Z,31.29
2022-08-01T15:10:46.052Z,31.07
2022-08-01T15:13:12.576Z,30.77
2022-08-01T15:15:39.157Z,30.71
2022-08-01T15:18:05.817Z,30.53
2022-08-01T15:20:33.791Z,30.33
2022-08-01T15:23:00.482Z,30.26
2022-08-01T15:25:27.098Z,30.16
2022-08-01T15:28:11.966Z,30.15
2022-08-01T15:30:39.070Z,30.13
2022-08-01T15:33:06.155Z,30.10
2022-08-01T15:35:33.053Z,30.08
2022-08-01T15:37:59.653Z,30.09
2022-08-01T15:40:27.508Z,30.24
2022-08-01T15:42:54.177Z,30.33
2022-08-01T15:48:08.966Z,30.77
2022-08-01T15:50:38.461Z,30.84
2022-08-01T15:53:05.704Z,31.09
2022-08-01T15:55:32.234Z,31.03
2022-08-01T15:57:58.743Z,31.17
2022-08-01T16:00:25.369Z,31.12
2022-08-01T16:02:59.774Z,31.16
2022-08-01T16:05:26.449Z,31.22
2022-08-01T16:07:59.767Z,31.30
2022-08-01T16:10:29.431Z,31.46
2022-08-01T16:12:55.973Z,31.22
2022-08-01T16:15:22.628Z,30.97
2022-08-01T16:18:05.386Z,30.96
2022-08-01T16:20:32.370Z,30.91
2022-08-01T16:22:58.902Z,30.93
2022-08-01T16:25:25.468Z,30.76
2022-08-01T16:27:52.239Z,30.78
2022-08-01T16:30:18.868Z,30.68
2022-08-01T16:32:48.786Z,30.70
2022-08-01T16:35:20.081Z,30.79
2022-08-01T16:37:47.049Z,30.76
2022-08-01T16:40:13.646Z,30.73
2022-08-01T16:42:40.239Z,30.74
2022-08-01T16:45:13.774Z,30.66
2022-08-01T16:47:40.711Z,30.50
2022-08-01T16:50:09.421Z,30.31
2022-08-01T16:52:42.092Z,30.36
2022-08-01T16:55:10.332Z,30.41
2022-08-01T16:57:38.517Z,30.23
2022-08-01T17:00:21.246Z,30.31
2022-08-01T17:02:49.367Z,30.28
2022-08-01T17:05:15.946Z,30.25
2022-08-01T17:07:42.523Z,30.13
2022-08-01T17:10:09.620Z,30.14
2022-08-01T17:12:36.239Z,29.99
2022-08-01T17:15:03.687Z,29.83
2022-08-01T17:17:30.255Z,29.87
2022-08-01T17:19:56.833Z,29.77
2022-08-01T17:22:23.357Z,29.68
2022-08-01T17:24:51.123Z,29.62
2022-08-01T17:27:18.417Z,29.50
2022-08-01T17:29:45.436Z,29.54
2022-08-01T17:32:13.264Z,29.47
2022-08-01T17:34:41.437Z,29.43
2022-08-01T17:37:09.288Z,29.26
2022-08-01T17:39:39.329Z,29.26
2022-08-01T17:42:07.984Z,29.25
2022-08-01T17:44:34.596Z,29.19
2022-08-01T17:47:01.140Z,28.99
2022-08-01T17:49:52.393Z,28.93
2022-08-01T17:52:14.395Z,29.04
2022-08-01T17:54:41.882Z,29.02
2022-08-01T17:57:09.020Z,28.94
2022-08-01T17:59:36.156Z,28.93
2022-08-01T18:02:02.892Z,28.91
2022-08-01T18:04:31.499Z,28.86
2022-08-01T18:07:01.006Z,28.76
2022-08-01T18:09:32.486Z,28.70
2022-08-01T18:12:03.011Z,28.71
2022-08-01T18:14:39.903Z,28.56
2022-08-01T18:17:08.635Z,28.55
2022-08-01T18:19:39.033Z,28.49
2022-08-01T18:22:05.907Z,28.46
2022-08-01T18:24:52.304Z,28.40
2022-08-01T18:27:18.912Z,28.36
2022-08-01T18:29:47.971Z,28.24
2022-08-01T18:32:15.195Z,28.26
2022-08-01T18:34:41.939Z,28.22
2022-08-01T18:37:10.178Z,28.23
2022-08-01T18:39:39.787Z,28.08
2022-08-01T18:42:06.493Z,28.07
2022-08-01T18:44:33.369Z,28.13
2022-08-01T18:46:59.971Z,28.12
2022-08-01T18:49:26.590Z,28.05
2022-08-01T18:51:54.191Z,27.99
2022-08-01T18:54:21.071Z,27.96
2022-08-01T18:56:47.624Z,27.94
2022-08-01T18:59:14.536Z,27.89
2022-08-01T19:01:41.594Z,27.86
2022-08-01T19:04:08.749Z,27.89
2022-08-01T19:06:35.703Z,27.75
2022-08-01T19:09:03.474Z,27.67
2022-08-01T19:11:31.244Z,27.66
2022-08-01T19:13:58.321Z,27.61
2022-08-01T19:16:27.813Z,27.56
2022-08-01T19:18:54.602Z,27.43
2022-08-01T19:21:22.547Z,27.32
2022-08-01T19:24:07.624Z,27.29
2022-08-01T19:26:34.910Z,27.31
2022-08-01T19:29:08.629Z,27.25
2022-08-01T19:31:39.762Z,27.22
2022-08-01T19:34:07.457Z,27.17
2022-08-01T19:36:34.625Z,27.15
2022-08-01T19:39:01.428Z,27.09
2022-08-01T19:41:29.842Z,27.06
2022-08-01T19:43:58.821Z,26.99
2022-08-01T19:46:25.839Z,26.96
2022-08-01T19:48:54.046Z,26.90
2022-08-01T19:51:33.200Z,26.83
2022-08-01T19:54:05.146Z,26.77
2022-08-01T19:56:39.640Z,26.69
2022-08-01T19:59:10.021Z,26.61
2022-08-01T20:01:37.498Z,26.55
2022-08-01T20:04:04.743Z,26.45
2022-08-01T20:06:31.417Z,26.39
2022-08-01T20:08:58.587Z,26.35
2022-08-01T20:11:26.353Z,26.27
2022-08-01T20:13:54.601Z,26.18
2022-08-01T20:16:21.414Z,26.13
2022-08-01T20:18:48.055Z,26.08
2022-08-01T20:21:15.528Z,26.02
2022-08-01T20:23:44.399Z,25.90
2022-08-01T20:26:13.906Z,25.89
2022-08-01T20:28:43.799Z,25.88
2022-08-01T20:31:10.512Z,25.94
2022-08-01T20:33:46.200Z,25.91
2022-08-01T20:36:24.813Z,25.95
2022-08-01T20:38:56.701Z,25.81
2022-08-01T20:41:26.545Z,25.78
2022-08-01T20:43:55.158Z,25.77
2022-08-01T20:46:26.881Z,25.82
2022-08-01T20:48:55.547Z,25.82
2022-08-01T20:51:26.727Z,25.79
2022-08-01T20:53:55.496Z,25.69
2022-08-01T20:56:27.858Z,25.68
2022-08-01T20:59:03.360Z,25.66
2022-08-01T21:01:33.630Z,25.64
2022-08-01T21:04:35.391Z,25.53
2022-08-01T21:07:27.775Z,25.49
2022-08-01T21:10:18.816Z,25.39
2022-08-01T21:12:52.221Z,25.33
2022-08-01T21:15:27.671Z,25.31
2022-08-01T21:18:16.224Z,25.29
2022-08-01T21:20:46.241Z,25.21
2022-08-01T21:23:33.875Z,25.24
2022-08-01T21:26:00.932Z,25.19
2022-08-01T21:28:28.236Z,25.14
2022-08-01T21:30:59.627Z,25.06
2022-08-01T21:33:27.868Z,25.01
2022-08-01T21:35:56.339Z,24.98
2022-08-01T21:38:24.918Z,24.96
2022-08-01T21:40:53.274Z,24.88
2022-08-01T21:43:21.342Z,24.84
2022-08-01T21:45:58.311Z,24.79
2022-08-01T21:48:26.931Z,24.80
2022-08-01T21:51:38.096Z,24.75
2022-08-01T21:54:13.895Z,24.72
2022-08-01T21:56:58.258Z,24.70
2022-08-01T21:59:44.336Z,24.67
2022-08-01T22:02:36.463Z,24.61
2022-08-01T22:05:07.048Z,24.53
2022-08-01T22:07:48.403Z,24.51
2022-08-01T22:10:20.249Z,24.42
2022-08-01T22:12:47.554Z,24.40
2022-08-01T22:15:14.611Z,24.31
2022-08-01T22:17:41.809Z,24.26
2022-08-01T22:20:08.927Z,24.21
2022-08-01T22:22:51.567Z,24.18
2022-08-01T22:25:19.853Z,24.12
2022-08-01T22:28:08.012Z,24.10
2022-08-01T22:30:35.018Z,24.08
2022-08-01T22:33:07.330Z,23.95
2022-08-01T22:35:43.853Z,23.86
2022-08-01T22:38:10.458Z,23.89
2022-08-01T22:40:44.970Z,23.87
2022-08-01T22:43:25.002Z,23.83
2022-08-01T22:45:56.211Z,23.69
2022-08-01T22:48:36.212Z,23.64
2022-08-01T22:51:06.239Z,23.56
2022-08-01T22:53:42.879Z,23.52
2022-08-01T22:56:12.977Z,23.53
2022-08-01T22:58:41.265Z,23.55
2022-08-01T23:01:12.961Z,23.52
2022-08-01T23:03:55.071Z,23.52
2022-08-01T23:06:41.258Z,23.47
2022-08-01T23:09:09.599Z,23.50
2022-08-01T23:11:37.028Z,23.55
2022-08-01T23:14:04.057Z,23.53
2022-08-01T23:16:31.401Z,23.54
2022-08-01T23:18:59.172Z,23.55
2022-08-01T23:21:28.014Z,23.56
2022-08-01T23:23:56.663Z,23.60
2022-08-01T23:26:23.901Z,23.63
2022-08-01T23:28:51.471Z,23.61
2022-08-01T23:31:20.094Z,23.64
2022-08-01T23:33:46.636Z,23.66
2022-08-01T23:36:17.215Z,23.67
2022-08-01T23:38:46.980Z,23.61
2022-08-01T23:41:16.319Z,23.51
2022-08-01T23:43:52.096Z,23.44
2022-08-01T23:46:19.113Z,23.41
2022-08-01T23:48:45.728Z,23.30
2022-08-01T23:51:23.905Z,23.26
2022-08-01T23:53:51.679Z,23.24
2022-08-01T23:56:21.913Z,23.18
2022-08-01T23:58:52.369Z,23.20
